Sunday, October 21, 2018, 9:22 PM EDT
Back to Local

KFWN, Sussex Airport

Location: Sussex, NJ, United States Lat: 41.2
Local Time: 9:22 PM EDT ( 1:22 GMT) Lon: -74.633
Time Zone: US/Eastern Elev: 419 ft

Show me the last for .
Show Decoded

2018-10-21 20:53 METAR KFWN 220053Z AUTO 00000KT 10SM CLR 03/M04 A3013 RMK AO2 SLP205 T00281039 =
2018-10-21 19:53 METAR KFWN 212353Z AUTO VRB04KT 10SM CLR 03/M04 A3011 RMK AO2 SLP199 T00331044
                 10072 20033 53021 =
2018-10-21 18:53 METAR KFWN 212253Z AUTO 32005KT 10SM CLR 03/M04 A3009 RMK AO2 SLP190 T00331044 =
2018-10-21 17:53 METAR KFWN 212153Z AUTO VRB05KT 10SM CLR 04/M05 A3006 RMK AO2 SLP182 T00441050 =
2018-10-21 16:53 METAR KFWN 212053Z AUTO 32012G16KT 10SM CLR 06/M04 A3005 RMK AO2 SLP177
                 T00561044 53014 =
2018-10-21 15:53 METAR KFWN 211953Z AUTO 30007G19KT 270V340 10SM SCT050 05/M04 A3003 RMK AO2
                 SLP172 T00501039 =
2018-10-21 14:53 METAR KFWN 211853Z AUTO 30011G21KT 10SM OVC049 06/M03 A3001 RMK AO2 PK WND
                 30026/1808 SLP166 T00611033 =
2018-10-21 13:53 METAR KFWN 211753Z AUTO 10SM OVC049 06/M03 A3000 RMK AO2 SLP162 60000 T00611033
                 10067 20050 53010 =
2018-10-21 12:53 METAR KFWN 211653Z AUTO 31008G16KT 10SM SCT041 OVC050 06/M02 A3000 RMK AO2
                 SLP159 T00561022 =
2018-10-21 11:53 METAR KFWN 211553Z AUTO 35007G14KT 10SM FEW043 OVC050 07/M01 A2998 RMK AO2
                 RAB10E26 SLP153 P0000 T00671006 =
2018-10-21 10:53 METAR KFWN 211453Z AUTO 33011G21KT 280V360 10SM OVC040 06/M02 A2997 RMK AO2
                 SLP152 T00561017 51035 =
2018-10-21 09:53 METAR KFWN 211353Z AUTO 36011G19KT 10SM OVC044 06/M02 A2996 RMK AO2 SLP148
                 T00561017 =
2018-10-21 08:53 METAR KFWN 211253Z AUTO 34011G19KT 300V360 10SM BKN046 OVC055 06/M02 A2992 RMK
                 AO2 SLP135 T00561017 =
2018-10-21 07:53 METAR KFWN 211153Z AUTO 34009KT 300V030 10SM OVC049 06/M01 A2987 RMK AO2 SLP116
                 70012 T00561011 10078 20056 51058 =
2018-10-21 06:53 METAR KFWN 211053Z AUTO 35014G20KT 10SM FEW095 SCT120 06/M01 A2983 RMK AO2
                 PRESRR SLP101 T00611006 =
2018-10-21 05:53 METAR KFWN 210953Z AUTO VRB06KT 10SM BKN080 OVC090 08/03 A2975 RMK AO2 SLP074
                 T00780033 =
2018-10-21 04:53 METAR KFWN 210853Z AUTO VRB05KT 10SM OVC065 07/04 A2970 RMK AO2 SLP056 T00720039
                 53022 =
2018-10-21 03:53 METAR KFWN 210753Z AUTO VRB05KT 10SM OVC050 08/03 A2967 RMK AO2 SLP046 T00780033
                 =
2018-10-21 02:53 METAR KFWN 210653Z AUTO VRB05KT 10SM OVC042 08/05 A2966 RMK AO2 SLP042 T00780050
                 =
2018-10-21 01:53 METAR KFWN 210553Z AUTO VRB04KT 10SM BKN080 08/06 A2963 RMK AO2 RAE09 SLP035
                 P0001 60012 T00780056 10089 20078 58006 =
2018-10-21 00:53 METAR KFWN 210453Z AUTO VRB03KT 10SM -RA BKN050 OVC075 08/07 A2964 RMK AO2
                 SLP038 P0003 T00830067 401720078 =
2018-10-21 00:36 METAR KFWN 210436Z AUTO 31004KT 8SM -RA FEW024 SCT029 OVC046 08/07 A2965 RMK AO2
                 P0003 T00830072 =
2018-10-20 23:53 METAR KFWN 210353Z AUTO 00000KT 10SM -RA BKN025 OVC032 08/08 A2965 RMK AO2
                 SLP039 P0005 T00830078 =
2018-10-20 22:53 METAR KFWN 210253Z AUTO 22003KT 9SM -RA SCT040 OVC047 08/07 A2965 RMK AO2
                 RAB0157 SLP040 P0003 60003 T00830072 53007 =
2018-10-20 21:53 METAR KFWN 210153Z AUTO 00000KT 10SM SCT060 BKN075 OVC090 08/07 A2963 RMK AO2
                 RAB37E50 SLP033 P0000 T00830067 =

Support USWX by starting your Amazon purchase here.